createdAt,value
2022-08-29T00:00:27.044Z,20.28
2022-08-29T00:02:56.955Z,20.56
2022-08-29T00:05:27.666Z,20.44
2022-08-29T00:07:54.325Z,20.37
2022-08-29T00:10:21.692Z,20.26
2022-08-29T00:12:48.383Z,20.35
2022-08-29T00:15:16.152Z,20.49
2022-08-29T00:17:43.571Z,20.19
2022-08-29T00:20:14.148Z,20.35
2022-08-29T00:22:42.338Z,20.30
2022-08-29T00:25:10.437Z,20.20
2022-08-29T00:27:37.240Z,19.90
2022-08-29T00:30:06.977Z,20.13
2022-08-29T00:32:33.681Z,20.00
2022-08-29T00:35:01.670Z,20.03
2022-08-29T00:37:28.297Z,20.19
2022-08-29T00:39:55.228Z,20.07
2022-08-29T00:42:23.524Z,20.07
2022-08-29T00:44:50.193Z,20.06
2022-08-29T00:47:20.912Z,20.02
2022-08-29T00:49:51.501Z,19.83
2022-08-29T00:52:28.683Z,19.61
2022-08-29T00:54:56.651Z,19.74
2022-08-29T00:57:27.575Z,19.57
2022-08-29T00:59:54.373Z,19.82
2022-08-29T01:02:21.065Z,19.74
2022-08-29T01:04:47.866Z,19.63
2022-08-29T01:07:14.924Z,19.30
2022-08-29T01:09:43.710Z,19.64
2022-08-29T01:12:10.821Z,19.65
2022-08-29T01:14:38.758Z,19.68
2022-08-29T01:17:08.771Z,19.81
2022-08-29T01:19:43.495Z,20.11
2022-08-29T01:22:13.855Z,19.96
2022-08-29T01:24:45.890Z,19.56
2022-08-29T01:27:13.457Z,19.59
2022-08-29T01:29:40.641Z,19.86
2022-08-29T01:32:07.342Z,20.10
2022-08-29T01:34:34.105Z,20.00
2022-08-29T01:37:06.690Z,20.20
2022-08-29T01:39:36.549Z,20.38
2022-08-29T01:42:23.689Z,20.40
2022-08-29T01:44:52.776Z,20.50
2022-08-29T01:47:20.577Z,20.32
2022-08-29T01:49:47.242Z,20.00
2022-08-29T01:52:13.863Z,19.90
2022-08-29T01:54:42.361Z,19.86
2022-08-29T01:57:12.990Z,20.05
2022-08-29T01:59:41.109Z,19.80
2022-08-29T02:02:15.311Z,19.85
2022-08-29T02:04:43.380Z,19.45
2022-08-29T02:07:12.673Z,19.51
2022-08-29T02:09:44.500Z,19.40
2022-08-29T02:12:13.766Z,19.56
2022-08-29T02:14:40.426Z,19.68
2022-08-29T02:17:07.966Z,19.59
2022-08-29T02:19:36.736Z,19.30
2022-08-29T02:22:03.882Z,19.20
2022-08-29T02:24:30.635Z,19.21
2022-08-29T02:26:58.205Z,19.13
2022-08-29T02:29:26.381Z,18.85
2022-08-29T02:32:04.994Z,18.76
2022-08-29T02:34:33.051Z,18.76
2022-08-29T02:36:59.665Z,18.86
2022-08-29T02:39:26.560Z,18.70
2022-08-29T02:41:53.212Z,18.96
2022-08-29T02:44:20.153Z,18.66
2022-08-29T02:46:47.533Z,18.57
2022-08-29T02:49:14.214Z,18.73
2022-08-29T02:51:41.705Z,18.79
2022-08-29T02:54:08.375Z,18.68
2022-08-29T02:56:35.039Z,18.53
2022-08-29T02:59:01.735Z,18.32
2022-08-29T03:01:28.393Z,18.79
2022-08-29T03:03:55.050Z,18.75
2022-08-29T03:06:22.107Z,18.73
2022-08-29T03:08:50.043Z,18.88
2022-08-29T03:11:17.360Z,18.54
2022-08-29T03:13:45.621Z,18.34
2022-08-29T03:16:13.288Z,18.39
2022-08-29T03:18:39.934Z,18.54
2022-08-29T03:21:14.902Z,18.49
2022-08-29T03:23:41.575Z,18.37
2022-08-29T03:26:08.195Z,18.41
2022-08-29T03:28:34.837Z,18.12
2022-08-29T03:31:01.590Z,18.33
2022-08-29T03:33:28.317Z,18.78
2022-08-29T03:35:54.938Z,18.34
2022-08-29T03:38:21.572Z,18.45
2022-08-29T03:40:48.357Z,18.74
2022-08-29T03:43:15.060Z,18.92
2022-08-29T03:45:42.696Z,19.12
2022-08-29T03:48:09.315Z,19.12
2022-08-29T03:50:35.956Z,18.81
2022-08-29T03:53:02.658Z,18.75
2022-08-29T03:55:29.385Z,18.68
2022-08-29T03:57:56.095Z,18.92
2022-08-29T04:00:23.000Z,18.94
2022-08-29T04:02:49.684Z,18.87
2022-08-29T04:05:18.480Z,19.01
2022-08-29T04:07:49.160Z,18.73
2022-08-29T04:10:22.964Z,18.46
2022-08-29T04:12:54.488Z,18.56
2022-08-29T04:15:23.135Z,18.64
2022-08-29T04:17:54.783Z,18.50
2022-08-29T04:20:25.344Z,18.37
2022-08-29T04:22:53.920Z,18.74
2022-08-29T04:25:20.891Z,18.80
2022-08-29T04:27:47.513Z,19.02
2022-08-29T04:30:18.008Z,19.07
2022-08-29T04:32:44.787Z,18.59
2022-08-29T04:35:14.192Z,18.55
2022-08-29T04:37:41.853Z,18.53
2022-08-29T04:40:10.683Z,18.75
2022-08-29T04:42:38.258Z,19.07
2022-08-29T04:45:07.425Z,19.10
2022-08-29T04:47:37.065Z,19.04
2022-08-29T04:50:05.881Z,18.79
2022-08-29T04:52:32.769Z,18.37
2022-08-29T04:54:59.648Z,18.41
2022-08-29T04:57:26.301Z,18.71
2022-08-29T04:59:57.146Z,18.61
2022-08-29T05:02:23.940Z,18.73
2022-08-29T05:04:50.730Z,18.64
2022-08-29T05:07:17.346Z,18.78
2022-08-29T05:09:43.974Z,18.62
2022-08-29T05:12:10.595Z,18.64
2022-08-29T05:14:37.212Z,18.70
2022-08-29T05:17:03.924Z,18.62
2022-08-29T05:19:34.615Z,18.79
2022-08-29T05:22:02.168Z,19.09
2022-08-29T05:24:28.861Z,19.34
2022-08-29T05:26:55.490Z,19.57
2022-08-29T05:29:22.251Z,19.48
2022-08-29T05:31:48.918Z,19.28
2022-08-29T05:34:34.718Z,19.42
2022-08-29T05:37:11.393Z,19.08
2022-08-29T05:39:39.280Z,19.11
2022-08-29T05:42:07.197Z,19.28
2022-08-29T05:44:35.689Z,19.46
2022-08-29T05:47:05.102Z,19.58
2022-08-29T05:49:31.977Z,19.89
2022-08-29T05:51:58.638Z,19.58
2022-08-29T05:54:25.474Z,19.59
2022-08-29T05:56:56.811Z,19.84
2022-08-29T05:59:23.439Z,19.34
2022-08-29T06:01:50.280Z,19.24
2022-08-29T06:04:17.066Z,19.36
2022-08-29T06:06:43.765Z,19.32
2022-08-29T06:09:12.194Z,19.44
2022-08-29T06:11:39.310Z,19.67
2022-08-29T06:14:06.367Z,20.26
2022-08-29T06:16:33.572Z,19.55
2022-08-29T06:19:01.109Z,19.56
2022-08-29T06:21:27.763Z,19.85
2022-08-29T06:23:54.647Z,19.91
2022-08-29T06:26:21.443Z,20.00
2022-08-29T06:28:48.610Z,19.86
2022-08-29T06:31:17.246Z,19.90
2022-08-29T06:33:44.078Z,19.99
2022-08-29T06:36:10.986Z,20.06
2022-08-29T06:38:37.706Z,20.39
2022-08-29T06:41:10.852Z,20.94
2022-08-29T06:43:37.681Z,20.56
2022-08-29T06:46:05.094Z,20.58
2022-08-29T06:48:31.838Z,20.23
2022-08-29T06:51:01.619Z,20.17
2022-08-29T06:53:31.617Z,20.43
2022-08-29T06:56:04.683Z,20.54
2022-08-29T06:58:32.923Z,20.67
2022-08-29T07:01:05.654Z,21.06
2022-08-29T07:03:32.344Z,21.33
2022-08-29T07:05:59.042Z,21.15
2022-08-29T07:08:25.688Z,20.61
2022-08-29T07:10:52.440Z,20.38
2022-08-29T07:13:19.059Z,20.53
2022-08-29T07:15:45.719Z,20.75
2022-08-29T07:18:12.549Z,20.95
2022-08-29T07:20:39.247Z,20.96
2022-08-29T07:23:06.688Z,20.77
2022-08-29T07:25:35.516Z,21.13
2022-08-29T07:28:02.429Z,20.85
2022-08-29T07:30:29.170Z,21.35
2022-08-29T07:32:55.872Z,21.03
2022-08-29T07:35:30.038Z,21.26
2022-08-29T07:38:00.990Z,21.68
2022-08-29T07:40:29.522Z,21.42
2022-08-29T07:42:56.262Z,21.72
2022-08-29T07:45:23.101Z,21.53
2022-08-29T07:47:49.865Z,21.22
2022-08-29T07:50:16.471Z,21.16
2022-08-29T07:52:43.333Z,20.99
2022-08-29T07:55:09.959Z,21.48
2022-08-29T07:57:39.835Z,21.87
2022-08-29T08:00:07.901Z,21.53
2022-08-29T08:02:34.623Z,21.98
2022-08-29T08:05:01.405Z,22.46
2022-08-29T08:07:29.577Z,22.18
2022-08-29T08:09:56.376Z,22.10
2022-08-29T08:12:22.985Z,22.10
2022-08-29T08:14:49.611Z,22.36
2022-08-29T08:17:16.315Z,22.27
2022-08-29T08:19:42.932Z,22.59
2022-08-29T08:22:09.712Z,22.77
2022-08-29T08:24:36.354Z,22.79
2022-08-29T08:27:02.995Z,22.96
2022-08-29T08:29:29.633Z,23.23
2022-08-29T08:31:56.374Z,23.31
2022-08-29T08:34:23.023Z,22.99
2022-08-29T08:36:50.367Z,23.35
2022-08-29T08:39:17.243Z,23.18
2022-08-29T08:42:05.497Z,23.20
2022-08-29T08:44:53.498Z,23.41
2022-08-29T08:47:31.201Z,23.68
2022-08-29T08:50:21.540Z,23.86
2022-08-29T08:52:57.191Z,23.56
2022-08-29T08:55:42.194Z,23.36
2022-08-29T08:58:17.806Z,23.04
2022-08-29T09:00:48.960Z,23.29
2022-08-29T09:03:23.430Z,23.35
2022-08-29T09:06:06.781Z,23.38
2022-08-29T09:08:46.815Z,23.77
2022-08-29T09:11:23.870Z,23.90
2022-08-29T09:14:12.312Z,23.84
2022-08-29T09:16:47.361Z,24.20
2022-08-29T09:19:17.282Z,24.37
2022-08-29T09:21:51.069Z,24.02
2022-08-29T09:24:48.381Z,24.30
2022-08-29T09:27:24.227Z,24.13
2022-08-29T09:30:01.350Z,24.13
2022-08-29T09:32:28.122Z,24.05
2022-08-29T09:35:08.439Z,24.27
2022-08-29T09:37:36.149Z,24.46
2022-08-29T09:40:07.889Z,24.53
2022-08-29T09:42:38.593Z,24.53
2022-08-29T09:45:16.808Z,24.51
2022-08-29T09:47:43.761Z,24.69
2022-08-29T09:50:23.314Z,24.70
2022-08-29T09:53:02.727Z,24.88
2022-08-29T09:55:45.392Z,24.79
2022-08-29T09:58:18.034Z,25.06
2022-08-29T10:01:00.960Z,24.98
2022-08-29T10:03:33.533Z,25.37
2022-08-29T10:06:14.219Z,25.36
2022-08-29T10:08:42.668Z,25.30
2022-08-29T10:11:23.947Z,25.31
2022-08-29T10:13:55.090Z,25.52
2022-08-29T10:16:30.729Z,25.33
2022-08-29T10:19:02.901Z,24.73
2022-08-29T10:21:50.523Z,24.87
2022-08-29T10:24:22.891Z,24.83
2022-08-29T10:27:24.953Z,25.12
2022-08-29T10:30:13.534Z,25.84
2022-08-29T10:33:08.301Z,25.62
2022-08-29T10:35:57.878Z,25.69
2022-08-29T10:38:46.104Z,25.50
2022-08-29T10:41:31.099Z,25.19
2022-08-29T10:44:08.911Z,25.09
2022-08-29T10:47:17.151Z,25.31
2022-08-29T10:50:00.022Z,24.90
2022-08-29T10:53:04.385Z,24.82
2022-08-29T10:55:50.095Z,25.17
2022-08-29T10:58:45.776Z,25.08
2022-08-29T11:01:29.655Z,25.04
2022-08-29T11:04:07.637Z,25.58
2022-08-29T11:06:48.180Z,25.28
2022-08-29T11:09:21.585Z,25.71
2022-08-29T11:12:17.427Z,25.87
2022-08-29T11:15:02.590Z,25.38
2022-08-29T11:17:36.038Z,25.49
2022-08-29T11:20:14.939Z,24.98
2022-08-29T11:22:48.335Z,25.47
2022-08-29T11:25:18.392Z,25.82
2022-08-29T11:27:54.641Z,25.74
2022-08-29T11:30:38.831Z,26.00
2022-08-29T11:33:50.593Z,26.07
2022-08-29T11:37:01.028Z,26.05
2022-08-29T11:39:30.286Z,26.31
2022-08-29T11:42:04.374Z,26.31
2022-08-29T11:44:35.233Z,26.66
2022-08-29T11:47:37.677Z,26.57
2022-08-29T11:50:16.055Z,26.57
2022-08-29T11:53:09.516Z,26.81
2022-08-29T11:55:42.711Z,26.06
2022-08-29T11:58:15.071Z,26.03
2022-08-29T12:00:46.171Z,26.24
2022-08-29T12:03:34.804Z,25.54
2022-08-29T12:06:10.690Z,25.73
2022-08-29T12:09:04.911Z,25.68
2022-08-29T12:12:01.062Z,25.96
2022-08-29T12:14:42.559Z,25.92
2022-08-29T12:17:51.245Z,25.34
2022-08-29T12:20:31.010Z,25.28
2022-08-29T12:23:19.713Z,25.15
2022-08-29T12:26:09.608Z,25.35
2022-08-29T12:28:45.867Z,25.53
2022-08-29T12:32:02.444Z,25.76
2022-08-29T12:34:42.758Z,25.90
2022-08-29T12:37:23.867Z,25.84
2022-08-29T12:40:10.968Z,25.54
2022-08-29T12:42:48.250Z,25.46
2022-08-29T12:45:28.375Z,25.28
2022-08-29T12:48:00.400Z,25.39
2022-08-29T12:50:27.893Z,25.55
2022-08-29T12:53:04.343Z,25.55
2022-08-29T12:55:39.532Z,25.47
2022-08-29T12:58:07.886Z,25.52
2022-08-29T13:00:35.417Z,25.75
2022-08-29T13:03:14.865Z,25.71
2022-08-29T13:05:43.373Z,25.68
2022-08-29T13:08:26.115Z,25.67
2022-08-29T13:10:57.865Z,25.42
2022-08-29T13:13:26.299Z,25.48
2022-08-29T13:16:00.967Z,25.99
2022-08-29T13:18:29.412Z,25.83
2022-08-29T13:21:19.384Z,26.02
2022-08-29T13:24:05.016Z,26.46
2022-08-29T13:26:32.163Z,26.50
2022-08-29T13:29:10.657Z,26.67
2022-08-29T13:31:38.301Z,26.77
2022-08-29T13:34:11.736Z,26.67
2022-08-29T13:36:47.142Z,26.37
2022-08-29T13:39:24.121Z,26.20
2022-08-29T13:42:03.038Z,25.82
2022-08-29T13:44:57.328Z,25.87
2022-08-29T13:47:30.061Z,25.89
2022-08-29T13:50:06.221Z,26.05
2022-08-29T13:52:33.149Z,25.92
2022-08-29T13:55:01.881Z,25.90
2022-08-29T13:57:29.391Z,25.82
2022-08-29T13:59:57.808Z,25.84
2022-08-29T14:02:24.956Z,25.80
2022-08-29T14:04:51.948Z,26.04
2022-08-29T14:07:23.518Z,26.41
2022-08-29T14:09:51.105Z,26.18
2022-08-29T14:12:18.185Z,26.85
2022-08-29T14:14:45.644Z,27.03
2022-08-29T14:17:18.544Z,27.28
2022-08-29T14:19:46.330Z,27.23
2022-08-29T14:22:13.211Z,27.02
2022-08-29T14:24:39.852Z,27.15
2022-08-29T14:27:06.505Z,27.50
2022-08-29T14:29:35.708Z,27.80
2022-08-29T14:32:02.802Z,27.49
2022-08-29T14:34:32.584Z,27.75
2022-08-29T14:37:00.874Z,27.13
2022-08-29T14:39:27.799Z,27.25
2022-08-29T14:41:55.485Z,26.91
2022-08-29T14:44:22.383Z,26.46
2022-08-29T14:46:50.210Z,26.36
2022-08-29T14:49:17.222Z,26.55
2022-08-29T14:51:43.918Z,27.00
2022-08-29T14:54:10.572Z,27.31
2022-08-29T14:56:55.002Z,27.21
2022-08-29T14:59:22.791Z,27.23
2022-08-29T15:01:54.285Z,27.19
2022-08-29T15:04:35.313Z,27.08
2022-08-29T15:07:07.460Z,27.24
2022-08-29T15:09:34.131Z,26.96
2022-08-29T15:12:00.858Z,27.04
2022-08-29T15:14:27.604Z,27.25
2022-08-29T15:16:54.219Z,27.04
2022-08-29T15:19:53.640Z,27.38
2022-08-29T15:22:09.816Z,27.38
2022-08-29T15:24:37.172Z,28.06
2022-08-29T15:27:04.211Z,28.63
2022-08-29T15:29:31.894Z,28.79
2022-08-29T15:31:58.514Z,29.53
2022-08-29T15:34:25.749Z,29.48
2022-08-29T15:36:54.028Z,29.33
2022-08-29T15:39:21.316Z,28.75
2022-08-29T15:41:47.997Z,27.22
2022-08-29T15:44:15.142Z,27.24
2022-08-29T15:46:47.900Z,26.67
2022-08-29T15:49:19.907Z,26.39
2022-08-29T15:51:48.097Z,25.91
2022-08-29T15:54:15.496Z,24.84
2022-08-29T15:56:43.054Z,25.09
2022-08-29T15:59:12.228Z,25.06
2022-08-29T16:01:43.642Z,25.48
2022-08-29T16:04:11.628Z,25.27
2022-08-29T16:06:38.895Z,25.17
2022-08-29T16:09:15.194Z,24.49
2022-08-29T16:11:43.851Z,23.94
2022-08-29T16:14:46.734Z,23.48
2022-08-29T16:16:57.533Z,23.61
2022-08-29T16:19:24.250Z,23.81
2022-08-29T16:21:51.030Z,24.02
2022-08-29T16:24:17.942Z,23.94
2022-08-29T16:26:45.944Z,23.81
2022-08-29T16:29:12.855Z,24.14
2022-08-29T16:31:40.009Z,24.18
2022-08-29T16:34:06.915Z,24.07
2022-08-29T16:36:36.010Z,24.33
2022-08-29T16:39:05.060Z,24.11
2022-08-29T16:41:37.289Z,24.80
2022-08-29T16:44:04.045Z,24.26
2022-08-29T16:46:31.927Z,24.19
2022-08-29T16:48:58.810Z,24.02
2022-08-29T16:51:27.137Z,24.18
2022-08-29T16:53:54.298Z,24.00
2022-08-29T16:56:21.445Z,24.04
2022-08-29T16:58:48.995Z,23.82
2022-08-29T17:01:15.740Z,24.04
2022-08-29T17:03:43.118Z,24.07
2022-08-29T17:06:10.021Z,23.64
2022-08-29T17:08:36.968Z,23.70
2022-08-29T17:11:03.923Z,23.78
2022-08-29T17:13:31.221Z,23.84
2022-08-29T17:16:04.561Z,23.89
2022-08-29T17:18:32.042Z,24.07
2022-08-29T17:20:58.760Z,23.80
2022-08-29T17:23:30.154Z,23.97
2022-08-29T17:26:00.024Z,23.94
2022-08-29T17:28:27.045Z,24.33
2022-08-29T17:30:55.194Z,24.07
2022-08-29T17:33:21.886Z,24.04
2022-08-29T17:35:49.085Z,24.08
2022-08-29T17:38:17.071Z,24.05
2022-08-29T17:40:45.235Z,23.98
2022-08-29T17:43:12.278Z,23.87
2022-08-29T17:45:39.081Z,23.65
2022-08-29T17:48:06.404Z,23.78
2022-08-29T17:50:34.112Z,23.56
2022-08-29T17:53:01.111Z,23.53
2022-08-29T17:55:30.137Z,23.24
2022-08-29T17:57:58.548Z,23.22
2022-08-29T18:00:25.234Z,23.40
2022-08-29T18:02:52.132Z,23.85
2022-08-29T18:05:19.121Z,24.32
2022-08-29T18:07:45.763Z,24.53
2022-08-29T18:10:15.377Z,24.34
2022-08-29T18:12:42.500Z,24.32
2022-08-29T18:15:10.534Z,24.33
2022-08-29T18:17:38.019Z,24.21
2022-08-29T18:20:07.963Z,23.66
2022-08-29T18:22:35.890Z,23.22
2022-08-29T18:25:02.776Z,23.24
2022-08-29T18:27:29.503Z,23.18
2022-08-29T18:29:56.341Z,23.24
2022-08-29T18:32:24.662Z,23.01
2022-08-29T18:34:51.431Z,22.91
2022-08-29T18:37:18.116Z,23.27
2022-08-29T18:39:44.757Z,23.64
2022-08-29T18:42:24.994Z,23.56
2022-08-29T18:44:57.818Z,23.17
2022-08-29T18:47:24.440Z,23.03
2022-08-29T18:49:51.292Z,23.05
2022-08-29T18:52:17.932Z,23.26
2022-08-29T18:54:44.596Z,23.49
2022-08-29T18:57:11.371Z,23.76
2022-08-29T18:59:38.623Z,23.69
2022-08-29T19:02:05.529Z,23.65
2022-08-29T19:04:32.495Z,23.71
2022-08-29T19:06:59.246Z,23.79
2022-08-29T19:09:26.026Z,23.64
2022-08-29T19:11:52.644Z,23.38
2022-08-29T19:14:19.317Z,23.02
2022-08-29T19:16:45.987Z,23.02
2022-08-29T19:19:13.491Z,23.15
2022-08-29T19:21:40.353Z,23.32
2022-08-29T19:24:07.060Z,23.37
2022-08-29T19:26:36.100Z,23.33
2022-08-29T19:29:07.360Z,22.53
2022-08-29T19:31:34.081Z,22.53
2022-08-29T19:34:01.113Z,22.55
2022-08-29T19:36:27.738Z,22.68
2022-08-29T19:38:54.410Z,22.65
2022-08-29T19:41:21.204Z,22.13
2022-08-29T19:43:47.998Z,22.16
2022-08-29T19:46:18.657Z,21.82
2022-08-29T19:48:48.544Z,21.84
2022-08-29T19:51:19.855Z,22.08
2022-08-29T19:53:47.941Z,22.21
2022-08-29T19:56:14.549Z,22.29
2022-08-29T19:58:41.322Z,22.09
2022-08-29T20:01:09.661Z,22.08
2022-08-29T20:03:41.320Z,22.09
2022-08-29T20:06:09.394Z,22.24
2022-08-29T20:08:40.986Z,22.26
2022-08-29T20:11:17.241Z,22.33
2022-08-29T20:13:50.162Z,22.08
2022-08-29T20:16:19.380Z,22.21
2022-08-29T20:18:46.300Z,22.13
2022-08-29T20:21:16.061Z,22.10
2022-08-29T20:23:49.223Z,21.89
2022-08-29T20:26:19.687Z,22.04
2022-08-29T20:28:47.666Z,21.80
2022-08-29T20:31:14.554Z,21.82
2022-08-29T20:33:41.475Z,21.81
2022-08-29T20:36:08.451Z,21.98
2022-08-29T20:38:35.103Z,22.13
2022-08-29T20:41:01.728Z,22.16
2022-08-29T20:43:28.657Z,21.71
2022-08-29T20:45:55.777Z,21.55
2022-08-29T20:48:25.103Z,21.53
2022-08-29T20:51:01.339Z,21.74
2022-08-29T20:53:31.990Z,21.65
2022-08-29T20:56:00.416Z,21.79
2022-08-29T20:58:29.008Z,21.74
2022-08-29T21:00:57.166Z,21.79
2022-08-29T21:03:23.842Z,21.63
2022-08-29T21:05:50.477Z,21.49
2022-08-29T21:08:22.782Z,21.46
2022-08-29T21:10:52.057Z,21.69
2022-08-29T21:13:19.459Z,21.68
2022-08-29T21:15:46.678Z,21.41
2022-08-29T21:18:15.795Z,21.68
2022-08-29T21:20:53.857Z,21.56
2022-08-29T21:23:23.907Z,21.58
2022-08-29T21:25:59.258Z,21.50
2022-08-29T21:28:26.931Z,21.55
2022-08-29T21:30:53.728Z,21.77
2022-08-29T21:33:20.963Z,21.88
2022-08-29T21:35:49.913Z,21.81
2022-08-29T21:38:17.911Z,21.83
2022-08-29T21:40:51.063Z,21.75
2022-08-29T21:43:21.385Z,21.65
2022-08-29T21:45:48.180Z,21.64
2022-08-29T21:48:16.294Z,21.66
2022-08-29T21:50:43.608Z,21.50
2022-08-29T21:53:14.686Z,21.57
2022-08-29T21:55:41.611Z,21.42
2022-08-29T21:58:08.251Z,21.49
2022-08-29T22:00:36.982Z,21.53
2022-08-29T22:03:06.599Z,21.58
2022-08-29T22:05:33.494Z,21.56
2022-08-29T22:08:00.605Z,21.55
2022-08-29T22:10:29.547Z,21.66
2022-08-29T22:12:56.390Z,21.47
2022-08-29T22:15:23.783Z,21.47
2022-08-29T22:17:50.494Z,21.09
2022-08-29T22:20:17.458Z,21.19
2022-08-29T22:22:44.085Z,21.18
2022-08-29T22:25:10.717Z,21.27
2022-08-29T22:27:37.455Z,21.30
2022-08-29T22:30:06.061Z,21.26
2022-08-29T22:32:36.083Z,21.30
2022-08-29T22:35:04.461Z,21.46
2022-08-29T22:37:31.122Z,21.56
2022-08-29T22:39:57.809Z,21.58
2022-08-29T22:42:24.480Z,21.47
2022-08-29T22:45:06.394Z,21.38
2022-08-29T22:47:33.079Z,21.27
2022-08-29T22:49:59.785Z,21.25
2022-08-29T22:52:26.615Z,21.37
2022-08-29T22:54:54.254Z,21.42
2022-08-29T22:57:20.992Z,21.46
2022-08-29T22:59:48.436Z,21.38
2022-08-29T23:02:16.839Z,21.38
2022-08-29T23:04:43.529Z,21.39
2022-08-29T23:07:11.761Z,21.29
2022-08-29T23:09:40.919Z,21.01
2022-08-29T23:12:09.233Z,20.93
2022-08-29T23:14:36.752Z,20.85
2022-08-29T23:17:05.495Z,20.95
2022-08-29T23:19:33.119Z,20.94
2022-08-29T23:22:00.179Z,20.91
2022-08-29T23:24:29.354Z,20.62
2022-08-29T23:26:55.991Z,20.78
2022-08-29T23:29:22.673Z,20.83
2022-08-29T23:31:49.684Z,20.80
2022-08-29T23:34:16.434Z,20.74
2022-08-29T23:36:43.528Z,20.85
2022-08-29T23:39:11.734Z,20.90
2022-08-29T23:41:38.353Z,20.88
2022-08-29T23:44:05.001Z,20.94
2022-08-29T23:46:31.778Z,20.98
2022-08-29T23:48:58.574Z,20.92
2022-08-29T23:51:25.240Z,20.88
2022-08-29T23:53:51.869Z,20.86
2022-08-29T23:56:20.724Z,20.86
2022-08-29T23:58:48.138Z,20.90
